sensor_id;sensor_type;location;lat;lon;timestamp;pressure;altitude;pressure_sealevel;temperature;humidity
24558;BME280;12726;49.148;8.582;2023-12-07T00:01:47;100804.03;;;2.90;100.00
24558;BME280;12726;49.148;8.582;2023-12-07T00:04:32;100803.63;;;2.85;100.00
24558;BME280;12726;49.148;8.582;2023-12-07T00:07:18;100803.97;;;2.82;100.00
24558;BME280;12726;49.148;8.582;2023-12-07T00:10:04;100796.19;;;2.88;100.00
24558;BME280;12726;49.148;8.582;2023-12-07T00:12:49;100803.56;;;2.94;100.00
24558;BME280;12726;49.148;8.582;2023-12-07T00:15:35;100800.97;;;3.02;100.00
24558;BME280;12726;49.148;8.582;2023-12-07T00:18:24;100802.28;;;2.98;100.00
24558;BME280;12726;49.148;8.582;2023-12-07T00:21:10;100808.88;;;2.94;100.00
24558;BME280;12726;49.148;8.582;2023-12-07T00:23:55;100808.50;;;2.89;100.00
24558;BME280;12726;49.148;8.582;2023-12-07T00:26:41;100815.13;;;2.85;100.00
24558;BME280;12726;49.148;8.582;2023-12-07T00:29:26;100814.97;;;2.87;100.00
24558;BME280;12726;49.148;8.582;2023-12-07T00:32:11;100817.00;;;2.93;100.00
24558;BME280;12726;49.148;8.582;2023-12-07T00:34:58;100815.19;;;2.93;100.00
24558;BME280;12726;49.148;8.582;2023-12-07T00:37:43;100817.00;;;2.93;100.00
24558;BME280;12726;49.148;8.582;2023-12-07T00:40:28;100818.38;;;2.97;100.00
24558;BME280;12726;49.148;8.582;2023-12-07T00:43:14;100805.16;;;2.87;100.00
24558;BME280;12726;49.148;8.582;2023-12-07T00:46:01;100812.78;;;2.82;100.00
24558;BME280;12726;49.148;8.582;2023-12-07T00:48:46;100817.25;;;2.82;100.00
24558;BME280;12726;49.148;8.582;2023-12-07T00:51:33;100815.88;;;2.78;100.00
24558;BME280;12726;49.148;8.582;2023-12-07T00:54:18;100825.16;;;2.73;100.00
24558;BME280;12726;49.148;8.582;2023-12-07T00:57:03;100833.03;;;2.65;100.00
24558;BME280;12726;49.148;8.582;2023-12-07T00:59:49;100831.00;;;2.59;100.00
24558;BME280;12726;49.148;8.582;2023-12-07T01:02:34;100837.19;;;2.50;100.00
24558;BME280;12726;49.148;8.582;2023-12-07T01:05:20;100826.88;;;2.47;100.00
24558;BME280;12726;49.148;8.582;2023-12-07T01:08:06;100830.94;;;2.42;100.00
24558;BME280;12726;49.148;8.582;2023-12-07T01:10:52;100833.09;;;2.38;100.00
24558;BME280;12726;49.148;8.582;2023-12-07T01:13:37;100834.22;;;2.35;100.00
24558;BME280;12726;49.148;8.582;2023-12-07T01:16:22;100846.00;;;2.33;100.00
24558;BME280;12726;49.148;8.582;2023-12-07T01:19:09;100856.53;;;2.25;100.00
24558;BME280;12726;49.148;8.582;2023-12-07T01:21:55;100855.06;;;2.13;100.00
24558;BME280;12726;49.148;8.582;2023-12-07T01:24:42;100860.09;;;2.06;100.00
24558;BME280;12726;49.148;8.582;2023-12-07T01:27:28;100860.69;;;2.00;100.00
24558;BME280;12726;49.148;8.582;2023-12-07T01:30:13;100858.47;;;1.95;100.00
24558;BME280;12726;49.148;8.582;2023-12-07T01:32:58;100859.44;;;1.94;100.00
24558;BME280;12726;49.148;8.582;2023-12-07T01:35:44;100858.47;;;1.95;100.00
24558;BME280;12726;49.148;8.582;2023-12-07T01:38:29;100859.59;;;1.93;100.00
24558;BME280;12726;49.148;8.582;2023-12-07T01:41:19;100859.06;;;1.89;100.00
24558;BME280;12726;49.148;8.582;2023-12-07T01:44:07;100865.47;;;1.87;100.00
24558;BME280;12726;49.148;8.582;2023-12-07T01:46:52;100867.16;;;1.88;100.00
24558;BME280;12726;49.148;8.582;2023-12-07T01:49:39;100864.66;;;1.86;100.00
24558;BME280;12726;49.148;8.582;2023-12-07T01:52:25;100867.28;;;1.86;100.00
24558;BME280;12726;49.148;8.582;2023-12-07T01:55:12;100864.78;;;1.85;100.00
24558;BME280;12726;49.148;8.582;2023-12-07T01:57:59;100868.03;;;1.79;100.00
24558;BME280;12726;49.148;8.582;2023-12-07T02:00:45;100863.84;;;1.76;100.00
24558;BME280;12726;49.148;8.582;2023-12-07T02:03:31;100867.19;;;1.78;100.00
24558;BME280;12726;49.148;8.582;2023-12-07T02:06:16;100850.97;;;1.81;100.00
24558;BME280;12726;49.148;8.582;2023-12-07T02:09:01;100851.81;;;1.82;100.00
24558;BME280;12726;49.148;8.582;2023-12-07T02:11:47;100850.13;;;1.81;100.00
24558;BME280;12726;49.148;8.582;2023-12-07T02:14:34;100845.09;;;1.78;100.00
24558;BME280;12726;49.148;8.582;2023-12-07T02:17:24;100842.19;;;1.71;100.00
24558;BME280;12726;49.148;8.582;2023-12-07T02:20:13;100857.72;;;1.66;100.00
24558;BME280;12726;49.148;8.582;2023-12-07T02:23:04;100858.59;;;1.57;100.00
24558;BME280;12726;49.148;8.582;2023-12-07T02:25:52;100845.50;;;1.46;100.00
24558;BME280;12726;49.148;8.582;2023-12-07T02:28:43;100851.50;;;1.38;100.00
24558;BME280;12726;49.148;8.582;2023-12-07T02:31:28;100856.94;;;1.37;100.00
24558;BME280;12726;49.148;8.582;2023-12-07T02:34:13;100852.78;;;1.34;100.00
24558;BME280;12726;49.148;8.582;2023-12-07T02:37:03;100849.88;;;1.28;100.00
24558;BME280;12726;49.148;8.582;2023-12-07T02:39:49;100852.38;;;1.20;100.00
24558;BME280;12726;49.148;8.582;2023-12-07T02:42:37;100854.06;;;1.11;100.00
24558;BME280;12726;49.148;8.582;2023-12-07T02:45:24;100863.41;;;1.05;100.00
24558;BME280;12726;49.148;8.582;2023-12-07T02:48:10;100863.16;;;0.99;100.00
24558;BME280;12726;49.148;8.582;2023-12-07T02:50:55;100862.16;;;0.90;100.00
24558;BME280;12726;49.148;8.582;2023-12-07T02:53:40;100863.69;;;0.83;100.00
24558;BME280;12726;49.148;8.582;2023-12-07T02:56:25;100863.28;;;0.78;100.00
24558;BME280;12726;49.148;8.582;2023-12-07T02:59:11;100863.81;;;0.72;100.00
24558;BME280;12726;49.148;8.582;2023-12-07T03:01:58;100865.19;;;0.66;100.00
24558;BME280;12726;49.148;8.582;2023-12-07T03:04:43;100868.16;;;0.63;100.00
24558;BME280;12726;49.148;8.582;2023-12-07T03:07:28;100863.53;;;0.56;100.00
24558;BME280;12726;49.148;8.582;2023-12-07T03:10:14;100870.59;;;0.46;100.00
24558;BME280;12726;49.148;8.582;2023-12-07T03:12:59;100865.28;;;0.36;100.00
24558;BME280;12726;49.148;8.582;2023-12-07T03:15:44;100873.75;;;0.30;100.00
24558;BME280;12726;49.148;8.582;2023-12-07T03:18:31;100869.00;;;0.24;100.00
24558;BME280;12726;49.148;8.582;2023-12-07T03:21:16;100877.78;;;0.24;100.00
24558;BME280;12726;49.148;8.582;2023-12-07T03:24:02;100868.72;;;0.17;100.00
24558;BME280;12726;49.148;8.582;2023-12-07T03:26:47;100877.91;;;0.13;100.00
24558;BME280;12726;49.148;8.582;2023-12-07T03:29:32;100875.81;;;0.07;100.00
24558;BME280;12726;49.148;8.582;2023-12-07T03:32:18;100874.66;;;0.00;100.00
24558;BME280;12726;49.148;8.582;2023-12-07T03:35:05;100873.22;;;-0.04;100.00
24558;BME280;12726;49.148;8.582;2023-12-07T03:37:51;100877.97;;;-0.08;100.00
24558;BME280;12726;49.148;8.582;2023-12-07T03:40:36;100885.44;;;-0.13;100.00
24558;BME280;12726;49.148;8.582;2023-12-07T03:43:21;100881.41;;;-0.17;100.00
24558;BME280;12726;49.148;8.582;2023-12-07T03:46:07;100888.91;;;-0.22;100.00
24558;BME280;12726;49.148;8.582;2023-12-07T03:48:53;100888.19;;;-0.24;100.00
24558;BME280;12726;49.148;8.582;2023-12-07T03:51:39;100879.94;;;-0.30;100.00
24558;BME280;12726;49.148;8.582;2023-12-07T03:54:25;100894.13;;;-0.31;100.00
24558;BME280;12726;49.148;8.582;2023-12-07T03:57:11;100889.50;;;-0.39;100.00
24558;BME280;12726;49.148;8.582;2023-12-07T03:59:56;100893.38;;;-0.43;100.00
24558;BME280;12726;49.148;8.582;2023-12-07T04:02:42;100893.88;;;-0.49;100.00
24558;BME280;12726;49.148;8.582;2023-12-07T04:05:27;100894.25;;;-0.54;100.00
24558;BME280;12726;49.148;8.582;2023-12-07T04:08:14;100886.56;;;-0.57;100.00
24558;BME280;12726;49.148;8.582;2023-12-07T04:10:59;100892.16;;;-0.60;100.00
24558;BME280;12726;49.148;8.582;2023-12-07T04:13:45;100886.25;;;-0.63;100.00
24558;BME280;12726;49.148;8.582;2023-12-07T04:16:30;100890.38;;;-0.70;100.00
24558;BME280;12726;49.148;8.582;2023-12-07T04:19:16;100884.78;;;-0.77;100.00
24558;BME280;12726;49.148;8.582;2023-12-07T04:22:01;100888.53;;;-0.80;100.00
24558;BME280;12726;49.148;8.582;2023-12-07T04:24:48;100892.50;;;-0.85;100.00
24558;BME280;12726;49.148;8.582;2023-12-07T04:27:33;100895.53;;;-0.90;100.00
24558;BME280;12726;49.148;8.582;2023-12-07T04:30:19;100893.00;;;-0.91;100.00
24558;BME280;12726;49.148;8.582;2023-12-07T04:33:04;100895.81;;;-0.93;100.00
24558;BME280;12726;49.148;8.582;2023-12-07T04:35:49;100894.13;;;-0.94;100.00
24558;BME280;12726;49.148;8.582;2023-12-07T04:38:35;100895.31;;;-0.98;100.00
24558;BME280;12726;49.148;8.582;2023-12-07T04:41:22;100898.25;;;-1.01;100.00
24558;BME280;12726;49.148;8.582;2023-12-07T04:44:07;100899.19;;;-1.02;100.00
24558;BME280;12726;49.148;8.582;2023-12-07T04:46:52;100906.28;;;-1.02;100.00
24558;BME280;12726;49.148;8.582;2023-12-07T04:49:38;100902.56;;;-1.00;100.00
24558;BME280;12726;49.148;8.582;2023-12-07T04:52:23;100905.78;;;-0.96;100.00
24558;BME280;12726;49.148;8.582;2023-12-07T04:55:08;100906.00;;;-0.99;100.00
24558;BME280;12726;49.148;8.582;2023-12-07T04:57:55;100907.00;;;-1.00;100.00
24558;BME280;12726;49.148;8.582;2023-12-07T05:00:40;100914.78;;;-0.99;100.00
24558;BME280;12726;49.148;8.582;2023-12-07T05:03:25;100915.78;;;-1.00;100.00
24558;BME280;12726;49.148;8.582;2023-12-07T05:06:11;100917.56;;;-1.00;100.00
24558;BME280;12726;49.148;8.582;2023-12-07T05:08:56;100908.81;;;-1.01;100.00
24558;BME280;12726;49.148;8.582;2023-12-07T05:11:41;100913.81;;;-0.98;100.00
24558;BME280;12726;49.148;8.582;2023-12-07T05:14:32;100909.03;;;-0.93;100.00
24558;BME280;12726;49.148;8.582;2023-12-07T05:17:18;100900.38;;;-0.95;100.00
24558;BME280;12726;49.148;8.582;2023-12-07T05:20:05;100909.25;;;-0.96;100.00
24558;BME280;12726;49.148;8.582;2023-12-07T05:22:51;100908.09;;;-1.03;100.00
24558;BME280;12726;49.148;8.582;2023-12-07T05:25:36;100904.28;;;-1.10;100.00
24558;BME280;12726;49.148;8.582;2023-12-07T05:28:22;100894.09;;;-1.14;100.00
24558;BME280;12726;49.148;8.582;2023-12-07T05:31:08;100892.13;;;-1.12;100.00
24558;BME280;12726;49.148;8.582;2023-12-07T05:33:53;100896.56;;;-1.13;100.00
24558;BME280;12726;49.148;8.582;2023-12-07T05:36:39;100897.81;;;-1.17;100.00
24558;BME280;12726;49.148;8.582;2023-12-07T05:39:24;100904.78;;;-1.16;100.00
24558;BME280;12726;49.148;8.582;2023-12-07T05:42:12;100913.16;;;-1.11;100.00
24558;BME280;12726;49.148;8.582;2023-12-07T05:44:57;100914.31;;;-1.04;100.00
24558;BME280;12726;49.148;8.582;2023-12-07T05:47:44;100904.59;;;-1.03;100.00
24558;BME280;12726;49.148;8.582;2023-12-07T05:50:30;100910.13;;;-1.06;100.00
24558;BME280;12726;49.148;8.582;2023-12-07T05:53:15;100905.50;;;-1.14;100.00
24558;BME280;12726;49.148;8.582;2023-12-07T05:56:01;100906.81;;;-1.20;100.00
24558;BME280;12726;49.148;8.582;2023-12-07T05:58:46;100908.28;;;-1.27;100.00
24558;BME280;12726;49.148;8.582;2023-12-07T06:01:32;100914.06;;;-1.33;100.00
24558;BME280;12726;49.148;8.582;2023-12-07T06:04:18;100907.47;;;-1.38;100.00
24558;BME280;12726;49.148;8.582;2023-12-07T06:07:03;100911.44;;;-1.44;100.00
24558;BME280;12726;49.148;8.582;2023-12-07T06:09:49;100913.38;;;-1.46;100.00
24558;BME280;12726;49.148;8.582;2023-12-07T06:12:34;100919.59;;;-1.47;100.00
24558;BME280;12726;49.148;8.582;2023-12-07T06:15:19;100913.59;;;-1.49;100.00
24558;BME280;12726;49.148;8.582;2023-12-07T06:18:05;100906.91;;;-1.53;100.00
24558;BME280;12726;49.148;8.582;2023-12-07T06:20:52;100906.31;;;-1.56;100.00
24558;BME280;12726;49.148;8.582;2023-12-07T06:23:37;100907.50;;;-1.61;100.00
24558;BME280;12726;49.148;8.582;2023-12-07T06:26:23;100908.47;;;-1.62;100.00
24558;BME280;12726;49.148;8.582;2023-12-07T06:29:08;100917.59;;;-1.66;100.00
24558;BME280;12726;49.148;8.582;2023-12-07T06:31:53;100921.44;;;-1.70;100.00
24558;BME280;12726;49.148;8.582;2023-12-07T06:34:40;100914.97;;;-1.77;100.00
24558;BME280;12726;49.148;8.582;2023-12-07T06:37:27;100919.66;;;-1.80;100.00
24558;BME280;12726;49.148;8.582;2023-12-07T06:40:13;100929.59;;;-1.84;100.00
24558;BME280;12726;49.148;8.582;2023-12-07T06:42:58;100936.81;;;-1.86;100.00
24558;BME280;12726;49.148;8.582;2023-12-07T06:45:44;100928.91;;;-1.86;100.00
24558;BME280;12726;49.148;8.582;2023-12-07T06:48:29;100940.28;;;-1.85;100.00
24558;BME280;12726;49.148;8.582;2023-12-07T06:51:14;100937.66;;;-1.85;100.00
24558;BME280;12726;49.148;8.582;2023-12-07T06:54:01;100935.13;;;-1.87;100.00
24558;BME280;12726;49.148;8.582;2023-12-07T06:56:46;100936.94;;;-1.87;100.00
24558;BME280;12726;49.148;8.582;2023-12-07T06:59:32;100921.09;;;-1.87;100.00
24558;BME280;12726;49.148;8.582;2023-12-07T07:02:17;100927.22;;;-1.87;100.00
24558;BME280;12726;49.148;8.582;2023-12-07T07:05:03;100932.59;;;-1.88;100.00
24558;BME280;12726;49.148;8.582;2023-12-07T07:07:49;100935.97;;;-1.86;100.00
24558;BME280;12726;49.148;8.582;2023-12-07T07:10:36;100929.13;;;-1.78;100.00
24558;BME280;12726;49.148;8.582;2023-12-07T07:13:21;100932.34;;;-1.74;100.00
24558;BME280;12726;49.148;8.582;2023-12-07T07:16:08;100930.44;;;-1.72;100.00
24558;BME280;12726;49.148;8.582;2023-12-07T07:18:53;100929.34;;;-1.70;100.00
24558;BME280;12726;49.148;8.582;2023-12-07T07:21:38;100933.56;;;-1.67;100.00
24558;BME280;12726;49.148;8.582;2023-12-07T07:24:24;100939.56;;;-1.65;100.00
24558;BME280;12726;49.148;8.582;2023-12-07T07:27:10;100929.47;;;-1.60;100.00
24558;BME280;12726;49.148;8.582;2023-12-07T07:29:56;100952.00;;;-1.56;100.00
24558;BME280;12726;49.148;8.582;2023-12-07T07:32:41;100947.34;;;-1.52;100.00
24558;BME280;12726;49.148;8.582;2023-12-07T07:35:27;100951.28;;;-1.47;100.00
24558;BME280;12726;49.148;8.582;2023-12-07T07:38:13;100956.09;;;-1.41;100.00
24558;BME280;12726;49.148;8.582;2023-12-07T07:40:58;100953.94;;;-1.36;100.00
24558;BME280;12726;49.148;8.582;2023-12-07T07:43:46;100961.38;;;-1.30;100.00
24558;BME280;12726;49.148;8.582;2023-12-07T07:46:31;100960.59;;;-1.21;100.00
24558;BME280;12726;49.148;8.582;2023-12-07T07:49:19;100959.75;;;-1.10;100.00
24558;BME280;12726;49.148;8.582;2023-12-07T07:52:04;100964.03;;;-0.98;100.00
24558;BME280;12726;49.148;8.582;2023-12-07T07:54:50;100971.56;;;-0.82;100.00
24558;BME280;12726;49.148;8.582;2023-12-07T07:57:35;100971.72;;;-0.63;100.00
24558;BME280;12726;49.148;8.582;2023-12-07T08:00:22;100961.56;;;-0.47;100.00
24558;BME280;12726;49.148;8.582;2023-12-07T08:03:10;100969.03;;;-0.31;100.00
24558;BME280;12726;49.148;8.582;2023-12-07T08:05:55;100965.63;;;-0.22;100.00
24558;BME280;12726;49.148;8.582;2023-12-07T08:08:40;100961.34;;;-0.13;100.00
24558;BME280;12726;49.148;8.582;2023-12-07T08:11:26;100952.31;;;-0.11;100.00
24558;BME280;12726;49.148;8.582;2023-12-07T08:14:11;100947.59;;;-0.07;100.00
24558;BME280;12726;49.148;8.582;2023-12-07T08:16:59;100943.47;;;0.00;100.00
24558;BME280;12726;49.148;8.582;2023-12-07T08:19:44;100954.22;;;0.08;100.00
24558;BME280;12726;49.148;8.582;2023-12-07T08:22:29;100946.47;;;0.16;100.00
24558;BME280;12726;49.148;8.582;2023-12-07T08:25:15;100936.03;;;0.24;100.00
24558;BME280;12726;49.148;8.582;2023-12-07T08:28:01;100940.56;;;0.33;100.00
24558;BME280;12726;49.148;8.582;2023-12-07T08:30:46;100937.53;;;0.57;100.00
24558;BME280;12726;49.148;8.582;2023-12-07T08:33:33;100936.53;;;1.17;100.00
24558;BME280;12726;49.148;8.582;2023-12-07T08:36:19;100930.50;;;2.20;100.00
24558;BME280;12726;49.148;8.582;2023-12-07T08:39:04;100919.75;;;3.47;100.00
24558;BME280;12726;49.148;8.582;2023-12-07T08:41:53;100918.41;;;4.62;100.00
24558;BME280;12726;49.148;8.582;2023-12-07T08:44:38;100905.69;;;5.63;100.00
24558;BME280;12726;49.148;8.582;2023-12-07T08:47:24;100904.41;;;6.69;100.00
24558;BME280;12726;49.148;8.582;2023-12-07T08:50:13;100904.22;;;7.47;98.21
24558;BME280;12726;49.148;8.582;2023-12-07T08:52:58;100908.63;;;8.30;89.61
24558;BME280;12726;49.148;8.582;2023-12-07T08:55:44;100903.34;;;8.66;81.00
24558;BME280;12726;49.148;8.582;2023-12-07T08:58:29;100903.06;;;9.18;78.14
24558;BME280;12726;49.148;8.582;2023-12-07T09:01:14;100901.31;;;10.02;74.88
24558;BME280;12726;49.148;8.582;2023-12-07T09:04:00;100906.81;;;10.50;70.77
24558;BME280;12726;49.148;8.582;2023-12-07T09:06:46;100897.50;;;11.20;67.76
24558;BME280;12726;49.148;8.582;2023-12-07T09:09:32;100903.00;;;11.79;65.27
24558;BME280;12726;49.148;8.582;2023-12-07T09:12:18;100905.13;;;12.54;62.98
24558;BME280;12726;49.148;8.582;2023-12-07T09:15:04;100907.53;;;13.20;59.04
24558;BME280;12726;49.148;8.582;2023-12-07T09:17:51;100907.75;;;13.19;57.86
24558;BME280;12726;49.148;8.582;2023-12-07T09:20:36;100902.50;;;12.79;57.90
24558;BME280;12726;49.148;8.582;2023-12-07T09:23:31;100900.06;;;12.65;56.42
24558;BME280;12726;49.148;8.582;2023-12-07T09:26:16;100906.53;;;12.70;57.45
24558;BME280;12726;49.148;8.582;2023-12-07T09:29:02;100896.84;;;13.32;56.86
24558;BME280;12726;49.148;8.582;2023-12-07T09:31:47;100904.63;;;13.78;54.37
24558;BME280;12726;49.148;8.582;2023-12-07T09:34:33;100900.78;;;14.29;53.79
24558;BME280;12726;49.148;8.582;2023-12-07T09:37:19;100902.88;;;14.70;51.85
24558;BME280;12726;49.148;8.582;2023-12-07T09:40:07;100899.41;;;15.22;50.32
24558;BME280;12726;49.148;8.582;2023-12-07T09:42:52;100883.38;;;15.21;49.95
24558;BME280;12726;49.148;8.582;2023-12-07T09:45:38;100886.97;;;15.33;48.07
24558;BME280;12726;49.148;8.582;2023-12-07T09:48:23;100879.28;;;15.00;47.46
24558;BME280;12726;49.148;8.582;2023-12-07T09:51:10;100869.53;;;15.41;48.00
24558;BME280;12726;49.148;8.582;2023-12-07T09:53:56;100871.59;;;15.69;47.27
24558;BME280;12726;49.148;8.582;2023-12-07T09:56:43;100872.31;;;15.76;45.77
24558;BME280;12726;49.148;8.582;2023-12-07T09:59:28;100872.06;;;15.65;46.14
24558;BME280;12726;49.148;8.582;2023-12-07T10:02:14;100871.25;;;15.35;44.44
24558;BME280;12726;49.148;8.582;2023-12-07T10:05:03;100867.72;;;15.76;45.54
24558;BME280;12726;49.148;8.582;2023-12-07T10:07:50;100855.47;;;15.32;45.90
24558;BME280;12726;49.148;8.582;2023-12-07T10:10:35;100846.59;;;15.66;44.97
24558;BME280;12726;49.148;8.582;2023-12-07T10:13:22;100850.34;;;16.12;44.19
24558;BME280;12726;49.148;8.582;2023-12-07T10:16:10;100843.44;;;16.44;43.06
24558;BME280;12726;49.148;8.582;2023-12-07T10:18:56;100841.50;;;16.68;41.87
24558;BME280;12726;49.148;8.582;2023-12-07T10:21:42;100845.59;;;17.28;39.70
24558;BME280;12726;49.148;8.582;2023-12-07T10:24:28;100841.38;;;17.20;39.23
24558;BME280;12726;49.148;8.582;2023-12-07T10:27:15;100831.25;;;17.49;39.33
24558;BME280;12726;49.148;8.582;2023-12-07T10:30:02;100835.97;;;17.53;38.90
24558;BME280;12726;49.148;8.582;2023-12-07T10:32:48;100844.94;;;18.04;38.58
24558;BME280;12726;49.148;8.582;2023-12-07T10:35:38;100845.34;;;18.34;38.45
24558;BME280;12726;49.148;8.582;2023-12-07T10:38:23;100836.03;;;18.52;36.95
24558;BME280;12726;49.148;8.582;2023-12-07T10:41:09;100820.06;;;18.61;37.09
24558;BME280;12726;49.148;8.582;2023-12-07T10:44:00;100813.22;;;19.39;36.32
24558;BME280;12726;49.148;8.582;2023-12-07T10:46:47;100819.50;;;19.76;35.05
24558;BME280;12726;49.148;8.582;2023-12-07T10:49:34;100801.31;;;19.50;34.90
24558;BME280;12726;49.148;8.582;2023-12-07T10:52:24;100794.88;;;18.54;35.80
24558;BME280;12726;49.148;8.582;2023-12-07T10:55:14;100782.41;;;18.85;34.79
24558;BME280;12726;49.148;8.582;2023-12-07T10:58:01;100769.97;;;19.63;34.47
24558;BME280;12726;49.148;8.582;2023-12-07T11:00:47;100778.63;;;17.60;35.62
24558;BME280;12726;49.148;8.582;2023-12-07T11:03:34;100763.16;;;18.48;35.94
24558;BME280;12726;49.148;8.582;2023-12-07T11:06:20;100767.88;;;18.30;35.06
24558;BME280;12726;49.148;8.582;2023-12-07T11:09:07;100766.28;;;17.19;36.94
24558;BME280;12726;49.148;8.582;2023-12-07T11:11:57;100754.19;;;16.98;36.41
24558;BME280;12726;49.148;8.582;2023-12-07T11:14:43;100742.47;;;16.64;38.43
24558;BME280;12726;49.148;8.582;2023-12-07T11:17:29;100746.78;;;16.94;36.92
24558;BME280;12726;49.148;8.582;2023-12-07T11:20:20;100737.31;;;16.79;38.33
24558;BME280;12726;49.148;8.582;2023-12-07T11:23:05;100720.09;;;17.24;36.98
24558;BME280;12726;49.148;8.582;2023-12-07T11:25:52;100723.34;;;17.59;37.39
24558;BME280;12726;49.148;8.582;2023-12-07T11:28:39;100708.06;;;17.03;36.69
24558;BME280;12726;49.148;8.582;2023-12-07T11:31:25;100705.03;;;16.26;39.36
24558;BME280;12726;49.148;8.582;2023-12-07T11:34:11;100705.03;;;16.55;39.86
24558;BME280;12726;49.148;8.582;2023-12-07T11:36:59;100700.13;;;16.85;38.53
24558;BME280;12726;49.148;8.582;2023-12-07T11:39:44;100698.78;;;17.54;38.44
24558;BME280;12726;49.148;8.582;2023-12-07T11:42:30;100692.00;;;17.57;36.22
24558;BME280;12726;49.148;8.582;2023-12-07T11:45:15;100689.66;;;16.77;38.68
24558;BME280;12726;49.148;8.582;2023-12-07T11:48:20;100682.59;;;17.65;36.42
24558;BME280;12726;49.148;8.582;2023-12-07T11:51:07;100670.31;;;16.73;37.14
24558;BME280;12726;49.148;8.582;2023-12-07T11:53:54;100680.44;;;15.29;39.24
24558;BME280;12726;49.148;8.582;2023-12-07T11:56:39;100673.91;;;13.83;43.06
24558;BME280;12726;49.148;8.582;2023-12-07T11:59:25;100665.84;;;12.72;45.81
24558;BME280;12726;49.148;8.582;2023-12-07T12:02:10;100660.88;;;11.55;49.20
24558;BME280;12726;49.148;8.582;2023-12-07T12:04:58;100662.09;;;11.59;49.87
24558;BME280;12726;49.148;8.582;2023-12-07T12:07:43;100656.34;;;11.49;50.33
24558;BME280;12726;49.148;8.582;2023-12-07T12:10:29;100641.13;;;11.74;50.40
24558;BME280;12726;49.148;8.582;2023-12-07T12:13:15;100637.94;;;12.28;49.55
24558;BME280;12726;49.148;8.582;2023-12-07T12:16:01;100635.91;;;13.41;46.44
24558;BME280;12726;49.148;8.582;2023-12-07T12:18:49;100636.66;;;14.56;44.25
24558;BME280;12726;49.148;8.582;2023-12-07T12:21:35;100632.75;;;14.64;43.30
24558;BME280;12726;49.148;8.582;2023-12-07T12:24:22;100622.41;;;15.31;41.78
24558;BME280;12726;49.148;8.582;2023-12-07T12:27:09;100610.00;;;16.15;40.23
24558;BME280;12726;49.148;8.582;2023-12-07T12:29:54;100615.94;;;15.83;40.96
24558;BME280;12726;49.148;8.582;2023-12-07T12:32:43;100621.06;;;15.68;41.14
24558;BME280;12726;49.148;8.582;2023-12-07T12:35:29;100608.59;;;15.32;40.59
24558;BME280;12726;49.148;8.582;2023-12-07T12:38:14;100604.44;;;13.28;44.25
24558;BME280;12726;49.148;8.582;2023-12-07T12:41:00;100601.47;;;13.12;45.57
24558;BME280;12726;49.148;8.582;2023-12-07T12:43:49;100602.94;;;13.14;46.28
24558;BME280;12726;49.148;8.582;2023-12-07T12:46:36;100600.09;;;12.35;48.23
24558;BME280;12726;49.148;8.582;2023-12-07T12:49:21;100602.00;;;11.96;48.61
24558;BME280;12726;49.148;8.582;2023-12-07T12:52:09;100596.09;;;11.17;51.68
24558;BME280;12726;49.148;8.582;2023-12-07T12:54:55;100589.53;;;10.86;53.17
24558;BME280;12726;49.148;8.582;2023-12-07T12:57:41;100587.91;;;10.59;53.31
24558;BME280;12726;49.148;8.582;2023-12-07T13:00:28;100580.16;;;9.90;55.02
24558;BME280;12726;49.148;8.582;2023-12-07T13:03:16;100562.72;;;9.12;58.50
24558;BME280;12726;49.148;8.582;2023-12-07T13:06:02;100565.19;;;8.73;60.46
24558;BME280;12726;49.148;8.582;2023-12-07T13:08:48;100574.41;;;8.14;62.57
24558;BME280;12726;49.148;8.582;2023-12-07T13:11:33;100573.25;;;7.81;64.03
24558;BME280;12726;49.148;8.582;2023-12-07T13:14:18;100577.06;;;7.36;66.27
24558;BME280;12726;49.148;8.582;2023-12-07T13:17:06;100582.34;;;7.29;67.76
24558;BME280;12726;49.148;8.582;2023-12-07T13:19:52;100586.22;;;7.27;68.77
24558;BME280;12726;49.148;8.582;2023-12-07T13:22:39;100582.50;;;7.28;69.47
24558;BME280;12726;49.148;8.582;2023-12-07T13:25:24;100584.47;;;7.19;69.86
24558;BME280;12726;49.148;8.582;2023-12-07T13:28:10;100577.34;;;6.97;70.21
24558;BME280;12726;49.148;8.582;2023-12-07T13:30:55;100585.31;;;6.90;70.63
24558;BME280;12726;49.148;8.582;2023-12-07T13:33:42;100586.50;;;6.88;71.63
24558;BME280;12726;49.148;8.582;2023-12-07T13:36:28;100584.09;;;6.78;72.78
24558;BME280;12726;49.148;8.582;2023-12-07T13:39:15;100582.44;;;6.92;72.87
24558;BME280;12726;49.148;8.582;2023-12-07T13:42:05;100579.94;;;6.76;73.55
24558;BME280;12726;49.148;8.582;2023-12-07T13:44:50;100583.38;;;6.99;73.47
24558;BME280;12726;49.148;8.582;2023-12-07T13:47:35;100582.00;;;7.03;73.13
24558;BME280;12726;49.148;8.582;2023-12-07T13:50:23;100577.19;;;7.13;71.85
24558;BME280;12726;49.148;8.582;2023-12-07T13:53:09;100579.28;;;7.18;72.14
24558;BME280;12726;49.148;8.582;2023-12-07T13:55:54;100568.47;;;7.26;71.36
24558;BME280;12726;49.148;8.582;2023-12-07T13:58:40;100580.03;;;7.26;71.47
24558;BME280;12726;49.148;8.582;2023-12-07T14:01:25;100570.63;;;7.16;70.86
24558;BME280;12726;49.148;8.582;2023-12-07T14:04:11;100567.88;;;6.80;70.86
24558;BME280;12726;49.148;8.582;2023-12-07T14:07:08;100563.03;;;6.46;72.29
24558;BME280;12726;49.148;8.582;2023-12-07T14:09:54;100568.44;;;6.23;72.79
24558;BME280;12726;49.148;8.582;2023-12-07T14:12:39;100559.69;;;6.06;73.84
24558;BME280;12726;49.148;8.582;2023-12-07T14:15:25;100548.97;;;5.92;74.71
24558;BME280;12726;49.148;8.582;2023-12-07T14:18:11;100541.84;;;5.76;75.34
24558;BME280;12726;49.148;8.582;2023-12-07T14:20:57;100524.19;;;5.52;76.08
24558;BME280;12726;49.148;8.582;2023-12-07T14:23:44;100532.28;;;5.36;76.82
24558;BME280;12726;49.148;8.582;2023-12-07T14:26:29;100528.53;;;5.22;77.82